sensor_id;sensor_type;location;lat;lon;timestamp;P1;durP1;ratioP1;P2;durP2;ratioP2
616;SDS011;295;51.628;7.520;2022-08-25T00:01:01;3.40;;;2.40;;
616;SDS011;295;51.628;7.520;2022-08-25T00:03:51;4.17;;;3.00;;
616;SDS011;295;51.628;7.520;2022-08-25T00:06:41;6.50;;;2.30;;
616;SDS011;295;51.628;7.520;2022-08-25T00:09:31;5.23;;;2.40;;
616;SDS011;295;51.628;7.520;2022-08-25T00:12:21;8.23;;;3.80;;
616;SDS011;295;51.628;7.520;2022-08-25T00:15:10;3.50;;;2.73;;
616;SDS011;295;51.628;7.520;2022-08-25T00:17:59;3.20;;;2.77;;
616;SDS011;295;51.628;7.520;2022-08-25T00:20:49;8.33;;;3.20;;
616;SDS011;295;51.628;7.520;2022-08-25T00:23:40;4.30;;;2.43;;
616;SDS011;295;51.628;7.520;2022-08-25T00:26:29;7.10;;;2.33;;
616;SDS011;295;51.628;7.520;2022-08-25T00:29:18;3.80;;;2.70;;
616;SDS011;295;51.628;7.520;2022-08-25T00:32:07;4.20;;;2.80;;
616;SDS011;295;51.628;7.520;2022-08-25T00:34:57;2.60;;;2.20;;
616;SDS011;295;51.628;7.520;2022-08-25T00:37:46;2.53;;;2.20;;
616;SDS011;295;51.628;7.520;2022-08-25T00:40:37;3.70;;;2.60;;
616;SDS011;295;51.628;7.520;2022-08-25T00:43:26;4.70;;;3.07;;
616;SDS011;295;51.628;7.520;2022-08-25T00:46:16;2.83;;;2.53;;
616;SDS011;295;51.628;7.520;2022-08-25T00:49:06;3.80;;;2.50;;
616;SDS011;295;51.628;7.520;2022-08-25T00:52:03;4.43;;;2.17;;
616;SDS011;295;51.628;7.520;2022-08-25T00:54:54;3.87;;;2.47;;
616;SDS011;295;51.628;7.520;2022-08-25T00:57:51;7.10;;;2.80;;
616;SDS011;295;51.628;7.520;2022-08-25T01:00:41;4.03;;;2.77;;
616;SDS011;295;51.628;7.520;2022-08-25T01:03:30;3.30;;;2.30;;
616;SDS011;295;51.628;7.520;2022-08-25T01:06:21;2.37;;;2.07;;
616;SDS011;295;51.628;7.520;2022-08-25T01:09:11;2.13;;;1.93;;
616;SDS011;295;51.628;7.520;2022-08-25T01:12:00;4.03;;;3.17;;
616;SDS011;295;51.628;7.520;2022-08-25T01:14:51;6.40;;;2.73;;
616;SDS011;295;51.628;7.520;2022-08-25T01:17:44;3.07;;;2.83;;
616;SDS011;295;51.628;7.520;2022-08-25T01:20:34;3.20;;;2.53;;
616;SDS011;295;51.628;7.520;2022-08-25T01:23:24;4.03;;;2.43;;
616;SDS011;295;51.628;7.520;2022-08-25T01:26:15;3.07;;;2.77;;
616;SDS011;295;51.628;7.520;2022-08-25T01:29:07;5.77;;;2.60;;
616;SDS011;295;51.628;7.520;2022-08-25T01:32:11;4.70;;;2.50;;
616;SDS011;295;51.628;7.520;2022-08-25T01:35:01;4.20;;;3.00;;
616;SDS011;295;51.628;7.520;2022-08-25T01:37:50;4.40;;;2.30;;
616;SDS011;295;51.628;7.520;2022-08-25T01:40:41;2.97;;;2.63;;
616;SDS011;295;51.628;7.520;2022-08-25T01:43:34;3.27;;;3.00;;
616;SDS011;295;51.628;7.520;2022-08-25T01:46:23;2.73;;;2.53;;
616;SDS011;295;51.628;7.520;2022-08-25T01:49:12;4.73;;;2.67;;
616;SDS011;295;51.628;7.520;2022-08-25T01:52:05;3.33;;;2.93;;
616;SDS011;295;51.628;7.520;2022-08-25T01:54:54;2.70;;;2.50;;
616;SDS011;295;51.628;7.520;2022-08-25T01:57:44;2.87;;;2.50;;
616;SDS011;295;51.628;7.520;2022-08-25T02:00:33;5.10;;;2.93;;
616;SDS011;295;51.628;7.520;2022-08-25T02:03:22;3.13;;;2.80;;
616;SDS011;295;51.628;7.520;2022-08-25T02:06:12;4.00;;;2.90;;
616;SDS011;295;51.628;7.520;2022-08-25T02:09:03;2.90;;;2.53;;
616;SDS011;295;51.628;7.520;2022-08-25T02:11:53;3.13;;;2.70;;
616;SDS011;295;51.628;7.520;2022-08-25T02:14:43;3.67;;;2.53;;
616;SDS011;295;51.628;7.520;2022-08-25T02:17:33;6.97;;;3.07;;
616;SDS011;295;51.628;7.520;2022-08-25T02:20:22;8.53;;;3.07;;
616;SDS011;295;51.628;7.520;2022-08-25T02:23:12;3.77;;;2.77;;
616;SDS011;295;51.628;7.520;2022-08-25T02:26:01;4.80;;;3.30;;
616;SDS011;295;51.628;7.520;2022-08-25T02:28:50;4.90;;;2.80;;
616;SDS011;295;51.628;7.520;2022-08-25T02:31:41;3.00;;;2.70;;
616;SDS011;295;51.628;7.520;2022-08-25T02:34:30;3.40;;;2.97;;
616;SDS011;295;51.628;7.520;2022-08-25T02:37:19;3.10;;;2.60;;
616;SDS011;295;51.628;7.520;2022-08-25T02:40:08;4.33;;;2.83;;
616;SDS011;295;51.628;7.520;2022-08-25T02:43:00;3.20;;;2.83;;
616;SDS011;295;51.628;7.520;2022-08-25T02:45:49;3.07;;;2.40;;
616;SDS011;295;51.628;7.520;2022-08-25T02:48:39;5.80;;;3.47;;
616;SDS011;295;51.628;7.520;2022-08-25T02:51:28;2.60;;;2.30;;
616;SDS011;295;51.628;7.520;2022-08-25T02:54:17;2.80;;;2.50;;
616;SDS011;295;51.628;7.520;2022-08-25T02:57:07;5.00;;;3.23;;
616;SDS011;295;51.628;7.520;2022-08-25T02:59:57;16.30;;;4.00;;
616;SDS011;295;51.628;7.520;2022-08-25T03:02:46;5.10;;;2.93;;
616;SDS011;295;51.628;7.520;2022-08-25T03:05:37;4.20;;;2.80;;
616;SDS011;295;51.628;7.520;2022-08-25T03:08:26;6.93;;;3.67;;
616;SDS011;295;51.628;7.520;2022-08-25T03:11:15;5.30;;;3.40;;
616;SDS011;295;51.628;7.520;2022-08-25T03:14:05;5.63;;;2.70;;
616;SDS011;295;51.628;7.520;2022-08-25T03:16:53;3.67;;;3.37;;
616;SDS011;295;51.628;7.520;2022-08-25T03:19:42;6.13;;;4.00;;
616;SDS011;295;51.628;7.520;2022-08-25T03:22:33;3.43;;;3.13;;
616;SDS011;295;51.628;7.520;2022-08-25T03:25:22;5.70;;;4.00;;
616;SDS011;295;51.628;7.520;2022-08-25T03:28:29;5.83;;;3.67;;
616;SDS011;295;51.628;7.520;2022-08-25T03:31:18;3.90;;;3.57;;
616;SDS011;295;51.628;7.520;2022-08-25T03:34:07;4.43;;;4.03;;
616;SDS011;295;51.628;7.520;2022-08-25T03:36:56;4.20;;;3.90;;
616;SDS011;295;51.628;7.520;2022-08-25T03:39:47;3.90;;;3.60;;
616;SDS011;295;51.628;7.520;2022-08-25T03:42:39;5.40;;;3.93;;
616;SDS011;295;51.628;7.520;2022-08-25T03:45:31;4.00;;;3.70;;
616;SDS011;295;51.628;7.520;2022-08-25T03:48:20;7.30;;;3.87;;
616;SDS011;295;51.628;7.520;2022-08-25T03:51:08;6.27;;;3.40;;
616;SDS011;295;51.628;7.520;2022-08-25T03:53:57;4.23;;;3.50;;
616;SDS011;295;51.628;7.520;2022-08-25T03:56:48;10.23;;;3.50;;
616;SDS011;295;51.628;7.520;2022-08-25T03:59:37;5.23;;;3.57;;
616;SDS011;295;51.628;7.520;2022-08-25T04:02:26;3.80;;;3.50;;
616;SDS011;295;51.628;7.520;2022-08-25T04:05:16;4.00;;;3.40;;
616;SDS011;295;51.628;7.520;2022-08-25T04:08:06;4.13;;;2.90;;
616;SDS011;295;51.628;7.520;2022-08-25T04:10:55;4.00;;;3.37;;
616;SDS011;295;51.628;7.520;2022-08-25T04:13:46;3.20;;;2.90;;
616;SDS011;295;51.628;7.520;2022-08-25T04:16:35;6.00;;;4.17;;
616;SDS011;295;51.628;7.520;2022-08-25T04:19:24;7.00;;;3.73;;
616;SDS011;295;51.628;7.520;2022-08-25T04:22:13;5.80;;;3.70;;
616;SDS011;295;51.628;7.520;2022-08-25T04:25:02;4.67;;;4.13;;
616;SDS011;295;51.628;7.520;2022-08-25T04:27:51;6.33;;;4.33;;
616;SDS011;295;51.628;7.520;2022-08-25T04:30:42;4.60;;;3.50;;
616;SDS011;295;51.628;7.520;2022-08-25T04:33:36;4.13;;;3.73;;
616;SDS011;295;51.628;7.520;2022-08-25T04:36:25;5.03;;;4.20;;
616;SDS011;295;51.628;7.520;2022-08-25T04:39:14;4.70;;;4.30;;
616;SDS011;295;51.628;7.520;2022-08-25T04:42:06;6.67;;;4.77;;
616;SDS011;295;51.628;7.520;2022-08-25T04:44:54;7.50;;;4.63;;
616;SDS011;295;51.628;7.520;2022-08-25T04:47:45;6.77;;;4.53;;
616;SDS011;295;51.628;7.520;2022-08-25T04:50:40;4.97;;;4.50;;
616;SDS011;295;51.628;7.520;2022-08-25T04:53:29;6.50;;;4.07;;
616;SDS011;295;51.628;7.520;2022-08-25T04:56:18;7.63;;;4.80;;
616;SDS011;295;51.628;7.520;2022-08-25T04:59:08;7.17;;;4.73;;
616;SDS011;295;51.628;7.520;2022-08-25T05:01:58;7.07;;;5.00;;
616;SDS011;295;51.628;7.520;2022-08-25T05:04:49;5.20;;;4.20;;
616;SDS011;295;51.628;7.520;2022-08-25T05:07:39;8.60;;;4.90;;
616;SDS011;295;51.628;7.520;2022-08-25T05:10:27;4.50;;;3.93;;
616;SDS011;295;51.628;7.520;2022-08-25T05:13:16;5.43;;;4.53;;
616;SDS011;295;51.628;7.520;2022-08-25T05:16:07;6.27;;;4.40;;
616;SDS011;295;51.628;7.520;2022-08-25T05:18:57;4.40;;;4.00;;
616;SDS011;295;51.628;7.520;2022-08-25T05:21:47;6.67;;;3.93;;
616;SDS011;295;51.628;7.520;2022-08-25T05:24:37;5.00;;;4.50;;
616;SDS011;295;51.628;7.520;2022-08-25T05:27:26;5.50;;;4.07;;
616;SDS011;295;51.628;7.520;2022-08-25T05:30:15;7.60;;;4.37;;
616;SDS011;295;51.628;7.520;2022-08-25T05:33:04;9.80;;;4.10;;
616;SDS011;295;51.628;7.520;2022-08-25T05:35:53;8.13;;;4.50;;
616;SDS011;295;51.628;7.520;2022-08-25T05:38:44;5.70;;;4.90;;
616;SDS011;295;51.628;7.520;2022-08-25T05:41:33;4.10;;;3.70;;
616;SDS011;295;51.628;7.520;2022-08-25T05:44:22;6.10;;;4.93;;
616;SDS011;295;51.628;7.520;2022-08-25T05:47:11;5.70;;;4.20;;
616;SDS011;295;51.628;7.520;2022-08-25T05:49:59;6.10;;;5.07;;
616;SDS011;295;51.628;7.520;2022-08-25T05:52:48;4.90;;;4.40;;
616;SDS011;295;51.628;7.520;2022-08-25T05:55:39;5.53;;;4.20;;
616;SDS011;295;51.628;7.520;2022-08-25T05:58:31;7.83;;;3.80;;
616;SDS011;295;51.628;7.520;2022-08-25T06:01:22;6.60;;;4.03;;
616;SDS011;295;51.628;7.520;2022-08-25T06:04:30;4.73;;;4.33;;
616;SDS011;295;51.628;7.520;2022-08-25T06:07:19;5.10;;;4.60;;
616;SDS011;295;51.628;7.520;2022-08-25T06:10:09;5.57;;;4.50;;
616;SDS011;295;51.628;7.520;2022-08-25T06:13:00;5.90;;;4.03;;
616;SDS011;295;51.628;7.520;2022-08-25T06:15:55;6.87;;;4.57;;
616;SDS011;295;51.628;7.520;2022-08-25T06:18:44;5.93;;;4.83;;
616;SDS011;295;51.628;7.520;2022-08-25T06:21:33;8.10;;;3.93;;
616;SDS011;295;51.628;7.520;2022-08-25T06:24:25;7.10;;;4.47;;
616;SDS011;295;51.628;7.520;2022-08-25T06:27:14;6.43;;;4.33;;
616;SDS011;295;51.628;7.520;2022-08-25T06:30:06;5.13;;;3.80;;
616;SDS011;295;51.628;7.520;2022-08-25T06:33:02;4.67;;;4.17;;
616;SDS011;295;51.628;7.520;2022-08-25T06:35:52;4.90;;;4.17;;
616;SDS011;295;51.628;7.520;2022-08-25T06:38:41;7.13;;;4.07;;
616;SDS011;295;51.628;7.520;2022-08-25T06:41:31;4.30;;;3.90;;
616;SDS011;295;51.628;7.520;2022-08-25T06:44:24;4.60;;;3.97;;
616;SDS011;295;51.628;7.520;2022-08-25T06:47:17;7.10;;;4.17;;
616;SDS011;295;51.628;7.520;2022-08-25T06:50:06;4.33;;;3.80;;
616;SDS011;295;51.628;7.520;2022-08-25T06:52:59;9.10;;;4.53;;
616;SDS011;295;51.628;7.520;2022-08-25T06:55:54;5.87;;;4.40;;
616;SDS011;295;51.628;7.520;2022-08-25T06:58:54;6.30;;;3.80;;
616;SDS011;295;51.628;7.520;2022-08-25T07:01:43;5.00;;;4.50;;
616;SDS011;295;51.628;7.520;2022-08-25T07:04:42;4.60;;;4.17;;
616;SDS011;295;51.628;7.520;2022-08-25T07:07:35;8.10;;;3.77;;
616;SDS011;295;51.628;7.520;2022-08-25T07:10:31;4.85;;;4.45;;
616;SDS011;295;51.628;7.520;2022-08-25T07:13:24;4.72;;;4.20;;
616;SDS011;295;51.628;7.520;2022-08-25T07:16:17;5.63;;;4.47;;
616;SDS011;295;51.628;7.520;2022-08-25T07:19:07;5.32;;;4.68;;
616;SDS011;295;51.628;7.520;2022-08-25T07:22:02;5.00;;;4.45;;
616;SDS011;295;51.628;7.520;2022-08-25T07:24:52;5.60;;;5.05;;
616;SDS011;295;51.628;7.520;2022-08-25T07:27:43;4.32;;;3.92;;
616;SDS011;295;51.628;7.520;2022-08-25T07:30:34;6.50;;;4.43;;
616;SDS011;295;51.628;7.520;2022-08-25T07:33:24;5.95;;;4.78;;
616;SDS011;295;51.628;7.520;2022-08-25T07:36:15;5.00;;;4.22;;
616;SDS011;295;51.628;7.520;2022-08-25T07:39:06;5.55;;;5.05;;
616;SDS011;295;51.628;7.520;2022-08-25T07:41:57;6.35;;;5.50;;
616;SDS011;295;51.628;7.520;2022-08-25T07:44:47;4.72;;;4.28;;
616;SDS011;295;51.628;7.520;2022-08-25T07:47:36;6.30;;;5.20;;
616;SDS011;295;51.628;7.520;2022-08-25T07:50:26;5.57;;;4.97;;
616;SDS011;295;51.628;7.520;2022-08-25T07:53:15;5.80;;;4.97;;
616;SDS011;295;51.628;7.520;2022-08-25T07:56:09;4.95;;;4.35;;
616;SDS011;295;51.628;7.520;2022-08-25T07:58:58;6.00;;;5.50;;
616;SDS011;295;51.628;7.520;2022-08-25T08:01:50;10.52;;;5.20;;
616;SDS011;295;51.628;7.520;2022-08-25T08:04:39;6.03;;;4.88;;
616;SDS011;295;51.628;7.520;2022-08-25T08:07:32;5.93;;;5.40;;
616;SDS011;295;51.628;7.520;2022-08-25T08:10:29;6.13;;;5.30;;
616;SDS011;295;51.628;7.520;2022-08-25T08:13:40;6.85;;;6.18;;
616;SDS011;295;51.628;7.520;2022-08-25T08:16:29;6.40;;;5.15;;
616;SDS011;295;51.628;7.520;2022-08-25T08:19:19;5.95;;;5.45;;
616;SDS011;295;51.628;7.520;2022-08-25T08:22:09;5.47;;;4.97;;
616;SDS011;295;51.628;7.520;2022-08-25T08:25:01;6.00;;;5.50;;
616;SDS011;295;51.628;7.520;2022-08-25T08:27:56;6.10;;;5.32;;
616;SDS011;295;51.628;7.520;2022-08-25T08:30:46;5.70;;;5.20;;
616;SDS011;295;51.628;7.520;2022-08-25T08:33:41;7.32;;;5.90;;
616;SDS011;295;51.628;7.520;2022-08-25T08:36:30;6.00;;;5.40;;
616;SDS011;295;51.628;7.520;2022-08-25T08:39:19;6.03;;;5.45;;
616;SDS011;295;51.628;7.520;2022-08-25T08:45:19;7.88;;;7.07;;
616;SDS011;295;51.628;7.520;2022-08-25T08:48:16;7.63;;;5.38;;
616;SDS011;295;51.628;7.520;2022-08-25T08:51:13;14.65;;;5.93;;
616;SDS011;295;51.628;7.520;2022-08-25T08:54:06;5.35;;;4.85;;
616;SDS011;295;51.628;7.520;2022-08-25T08:57:04;6.05;;;5.40;;
616;SDS011;295;51.628;7.520;2022-08-25T08:59:59;5.55;;;5.07;;
616;SDS011;295;51.628;7.520;2022-08-25T09:02:49;6.75;;;5.28;;
616;SDS011;295;51.628;7.520;2022-08-25T09:05:45;6.13;;;5.53;;
616;SDS011;295;51.628;7.520;2022-08-25T09:08:36;6.88;;;5.30;;
616;SDS011;295;51.628;7.520;2022-08-25T09:11:33;5.88;;;5.45;;
616;SDS011;295;51.628;7.520;2022-08-25T09:14:32;5.78;;;5.28;;
616;SDS011;295;51.628;7.520;2022-08-25T09:17:30;8.10;;;5.25;;
616;SDS011;295;51.628;7.520;2022-08-25T09:20:28;6.28;;;5.30;;
616;SDS011;295;51.628;7.520;2022-08-25T09:23:29;7.55;;;5.28;;
616;SDS011;295;51.628;7.520;2022-08-25T09:26:23;7.57;;;6.25;;
616;SDS011;295;51.628;7.520;2022-08-25T09:29:18;6.13;;;5.72;;
616;SDS011;295;51.628;7.520;2022-08-25T09:32:12;6.43;;;5.93;;
616;SDS011;295;51.628;7.520;2022-08-25T09:35:12;6.85;;;5.80;;
616;SDS011;295;51.628;7.520;2022-08-25T09:38:03;6.38;;;5.82;;
616;SDS011;295;51.628;7.520;2022-08-25T09:40:55;6.03;;;5.38;;
616;SDS011;295;51.628;7.520;2022-08-25T09:43:50;8.82;;;6.93;;
616;SDS011;295;51.628;7.520;2022-08-25T09:46:40;6.22;;;5.68;;
616;SDS011;295;51.628;7.520;2022-08-25T09:49:33;6.32;;;5.78;;
616;SDS011;295;51.628;7.520;2022-08-25T09:52:30;7.35;;;6.30;;
616;SDS011;295;51.628;7.520;2022-08-25T09:55:29;5.93;;;5.40;;
616;SDS011;295;51.628;7.520;2022-08-25T09:58:27;5.18;;;4.68;;
616;SDS011;295;51.628;7.520;2022-08-25T10:01:21;5.72;;;5.13;;
616;SDS011;295;51.628;7.520;2022-08-25T10:04:11;6.28;;;5.72;;
616;SDS011;295;51.628;7.520;2022-08-25T10:07:20;5.78;;;5.28;;
616;SDS011;295;51.628;7.520;2022-08-25T10:10:15;5.75;;;4.57;;
616;SDS011;295;51.628;7.520;2022-08-25T10:13:11;6.35;;;4.97;;
616;SDS011;295;51.628;7.520;2022-08-25T10:16:06;7.40;;;5.57;;
616;SDS011;295;51.628;7.520;2022-08-25T10:19:12;4.93;;;4.53;;
616;SDS011;295;51.628;7.520;2022-08-25T10:22:04;8.20;;;4.88;;
616;SDS011;295;51.628;7.520;2022-08-25T10:24:57;5.47;;;4.90;;
616;SDS011;295;51.628;7.520;2022-08-25T10:27:49;4.90;;;4.50;;
616;SDS011;295;51.628;7.520;2022-08-25T10:30:47;5.38;;;4.82;;
616;SDS011;295;51.628;7.520;2022-08-25T10:33:43;7.32;;;4.90;;
616;SDS011;295;51.628;7.520;2022-08-25T10:36:41;4.53;;;4.13;;
616;SDS011;295;51.628;7.520;2022-08-25T10:39:35;4.38;;;4.07;;
616;SDS011;295;51.628;7.520;2022-08-25T10:42:33;4.57;;;4.18;;
616;SDS011;295;51.628;7.520;2022-08-25T10:45:30;4.95;;;4.55;;
616;SDS011;295;51.628;7.520;2022-08-25T10:48:56;5.15;;;4.45;;
616;SDS011;295;51.628;7.520;2022-08-25T10:51:49;4.15;;;3.85;;
616;SDS011;295;51.628;7.520;2022-08-25T10:54:47;4.22;;;3.80;;
616;SDS011;295;51.628;7.520;2022-08-25T10:57:47;5.53;;;5.05;;
616;SDS011;295;51.628;7.520;2022-08-25T11:00:41;5.32;;;4.82;;
616;SDS011;295;51.628;7.520;2022-08-25T11:03:41;5.07;;;4.22;;
616;SDS011;295;51.628;7.520;2022-08-25T11:06:36;4.72;;;4.00;;
616;SDS011;295;51.628;7.520;2022-08-25T11:09:29;5.30;;;4.00;;
616;SDS011;295;51.628;7.520;2022-08-25T11:12:24;4.47;;;4.18;;
616;SDS011;295;51.628;7.520;2022-08-25T11:15:16;4.80;;;4.40;;
616;SDS011;295;51.628;7.520;2022-08-25T11:18:08;4.63;;;4.32;;
616;SDS011;295;51.628;7.520;2022-08-25T11:21:04;4.60;;;4.20;;
616;SDS011;295;51.628;7.520;2022-08-25T11:23:59;4.90;;;4.50;;
616;SDS011;295;51.628;7.520;2022-08-25T11:26:59;4.50;;;4.20;;
616;SDS011;295;51.628;7.520;2022-08-25T11:29:52;6.25;;;4.60;;
616;SDS011;295;51.628;7.520;2022-08-25T11:32:44;8.23;;;4.40;;
616;SDS011;295;51.628;7.520;2022-08-25T11:35:36;4.68;;;4.13;;
616;SDS011;295;51.628;7.520;2022-08-25T11:38:36;4.40;;;4.10;;
616;SDS011;295;51.628;7.520;2022-08-25T11:41:37;4.72;;;4.32;;
616;SDS011;295;51.628;7.520;2022-08-25T11:44:35;6.30;;;4.17;;
616;SDS011;295;51.628;7.520;2022-08-25T11:47:49;4.30;;;4.00;;
616;SDS011;295;51.628;7.520;2022-08-25T11:50:55;4.90;;;3.67;;
616;SDS011;295;51.628;7.520;2022-08-25T11:53:46;4.20;;;3.90;;
616;SDS011;295;51.628;7.520;2022-08-25T11:56:42;6.15;;;4.50;;
616;SDS011;295;51.628;7.520;2022-08-25T12:02:51;3.55;;;3.30;;
616;SDS011;295;51.628;7.520;2022-08-25T12:05:52;4.05;;;3.65;;
616;SDS011;295;51.628;7.520;2022-08-25T12:09:18;5.47;;;3.33;;
616;SDS011;295;51.628;7.520;2022-08-25T12:15:25;5.43;;;3.47;;
616;SDS011;295;51.628;7.520;2022-08-25T12:18:39;3.90;;;3.47;;
616;SDS011;295;51.628;7.520;2022-08-25T12:21:37;4.97;;;4.57;;
616;SDS011;295;51.628;7.520;2022-08-25T12:24:42;4.35;;;3.95;;
616;SDS011;295;51.628;7.520;2022-08-25T12:27:58;5.63;;;4.13;;
616;SDS011;295;51.628;7.520;2022-08-25T12:31:00;3.85;;;3.55;;
616;SDS011;295;51.628;7.520;2022-08-25T12:34:00;4.75;;;4.38;;
616;SDS011;295;51.628;7.520;2022-08-25T12:37:01;4.68;;;4.28;;
616;SDS011;295;51.628;7.520;2022-08-25T12:39:56;4.20;;;3.80;;
616;SDS011;295;51.628;7.520;2022-08-25T12:42:48;4.10;;;3.80;;
616;SDS011;295;51.628;7.520;2022-08-25T12:45:51;4.20;;;3.90;;
616;SDS011;295;51.628;7.520;2022-08-25T12:48:58;6.15;;;5.65;;
616;SDS011;295;51.628;7.520;2022-08-25T12:51:55;4.47;;;4.07;;
616;SDS011;295;51.628;7.520;2022-08-25T12:54:49;5.30;;;4.80;;
616;SDS011;295;51.628;7.520;2022-08-25T12:57:51;4.68;;;4.28;;
616;SDS011;295;51.628;7.520;2022-08-25T13:00:55;5.18;;;4.78;;
616;SDS011;295;51.628;7.520;2022-08-25T13:04:04;6.70;;;4.65;;
616;SDS011;295;51.628;7.520;2022-08-25T13:07:08;4.80;;;4.40;;
616;SDS011;295;51.628;7.520;2022-08-25T13:10:15;5.38;;;4.50;;
616;SDS011;295;51.628;7.520;2022-08-25T13:13:11;4.53;;;4.10;;
616;SDS011;295;51.628;7.520;2022-08-25T13:16:07;5.18;;;4.40;;
616;SDS011;295;51.628;7.520;2022-08-25T13:19:07;5.30;;;4.90;;
616;SDS011;295;51.628;7.520;2022-08-25T13:22:10;8.02;;;4.40;;
616;SDS011;295;51.628;7.520;2022-08-25T13:25:16;4.75;;;4.35;;
616;SDS011;295;51.628;7.520;2022-08-25T13:28:21;5.63;;;5.13;;
616;SDS011;295;51.628;7.520;2022-08-25T13:31:21;4.43;;;4.13;;
616;SDS011;295;51.628;7.520;2022-08-25T13:34:29;4.88;;;4.45;;
616;SDS011;295;51.628;7.520;2022-08-25T13:37:23;4.72;;;4.35;;
616;SDS011;295;51.628;7.520;2022-08-25T13:40:24;4.68;;;4.28;;
616;SDS011;295;51.628;7.520;2022-08-25T13:43:30;6.30;;;5.10;;
616;SDS011;295;51.628;7.520;2022-08-25T13:46:27;5.07;;;4.68;;
616;SDS011;295;51.628;7.520;2022-08-25T13:49:25;6.85;;;4.45;;
616;SDS011;295;51.628;7.520;2022-08-25T13:52:22;5.22;;;4.82;;
616;SDS011;295;51.628;7.520;2022-08-25T13:55:23;5.38;;;4.88;;
616;SDS011;295;51.628;7.520;2022-08-25T13:58:26;4.20;;;3.90;;
616;SDS011;295;51.628;7.520;2022-08-25T14:01:33;5.43;;;4.68;;
616;SDS011;295;51.628;7.520;2022-08-25T14:04:57;6.07;;;4.43;;
616;SDS011;295;51.628;7.520;2022-08-25T14:07:51;5.85;;;4.68;;
616;SDS011;295;51.628;7.520;2022-08-25T14:11:05;5.30;;;4.55;;
616;SDS011;295;51.628;7.520;2022-08-25T14:14:03;5.53;;;5.03;;
616;SDS011;295;51.628;7.520;2022-08-25T14:17:00;5.03;;;4.63;;
616;SDS011;295;51.628;7.520;2022-08-25T14:20:25;6.68;;;4.45;;
616;SDS011;295;51.628;7.520;2022-08-25T14:23:18;4.93;;;4.40;;
616;SDS011;295;51.628;7.520;2022-08-25T14:26:10;5.18;;;4.78;;
616;SDS011;295;51.628;7.520;2022-08-25T14:29:05;5.00;;;4.60;;
616;SDS011;295;51.628;7.520;2022-08-25T14:32:03;5.68;;;5.18;;
616;SDS011;295;51.628;7.520;2022-08-25T14:34:56;4.93;;;4.63;;
616;SDS011;295;51.628;7.520;2022-08-25T14:38:08;5.13;;;4.72;;
616;SDS011;295;51.628;7.520;2022-08-25T14:41:02;4.93;;;4.55;;
616;SDS011;295;51.628;7.520;2022-08-25T14:43:53;7.00;;;4.85;;
616;SDS011;295;51.628;7.520;2022-08-25T14:46:53;5.28;;;4.78;;
616;SDS011;295;51.628;7.520;2022-08-25T14:49:48;5.85;;;4.78;;
616;SDS011;295;51.628;7.520;2022-08-25T14:52:41;5.00;;;4.60;;
616;SDS011;295;51.628;7.520;2022-08-25T14:55:48;4.70;;;4.40;;
616;SDS011;295;51.628;7.520;2022-08-25T14:58:45;5.28;;;4.88;;
616;SDS011;295;51.628;7.520;2022-08-25T15:01:47;5.13;;;4.70;;
616;SDS011;295;51.628;7.520;2022-08-25T15:04:39;4.70;;;4.30;;
616;SDS011;295;51.628;7.520;2022-08-25T15:07:39;6.05;;;5.20;;
616;SDS011;295;51.628;7.520;2022-08-25T15:10:50;4.68;;;4.38;;
616;SDS011;295;51.628;7.520;2022-08-25T15:13:56;5.88;;;5.38;;
616;SDS011;295;51.628;7.520;2022-08-25T15:16:51;4.88;;;4.30;;
616;SDS011;295;51.628;7.520;2022-08-25T15:19:40;5.38;;;4.97;;
616;SDS011;295;51.628;7.520;2022-08-25T15:22:34;5.70;;;5.20;;
616;SDS011;295;51.628;7.520;2022-08-25T15:25:29;5.60;;;5.10;;
616;SDS011;295;51.628;7.520;2022-08-25T15:28:35;5.80;;;5.30;;
616;SDS011;295;51.628;7.520;2022-08-25T15:31:26;5.97;;;5.47;;
616;SDS011;295;51.628;7.520;2022-08-25T15:34:23;5.68;;;5.18;;
616;SDS011;295;51.628;7.520;2022-08-25T15:37:15;6.25;;;5.72;;
616;SDS011;295;51.628;7.520;2022-08-25T15:40:05;6.00;;;5.40;;
616;SDS011;295;51.628;7.520;2022-08-25T15:42:59;7.20;;;5.53;;
616;SDS011;295;51.628;7.520;2022-08-25T15:45:51;7.50;;;5.60;;
616;SDS011;295;51.628;7.520;2022-08-25T15:48:48;6.13;;;5.53;;
616;SDS011;295;51.628;7.520;2022-08-25T15:51:45;5.35;;;4.85;;
616;SDS011;295;51.628;7.520;2022-08-25T15:54:35;6.47;;;5.10;;
616;SDS011;295;51.628;7.520;2022-08-25T15:57:24;6.30;;;5.15;;
616;SDS011;295;51.628;7.520;2022-08-25T16:00:16;8.32;;;5.82;;
616;SDS011;295;51.628;7.520;2022-08-25T16:03:10;8.40;;;4.68;;
616;SDS011;295;51.628;7.520;2022-08-25T16:06:02;5.50;;;4.93;;
616;SDS011;295;51.628;7.520;2022-08-25T16:08:52;5.80;;;4.82;;
616;SDS011;295;51.628;7.520;2022-08-25T16:11:42;4.93;;;4.47;;
616;SDS011;295;51.628;7.520;2022-08-25T16:14:44;5.35;;;4.85;;
616;SDS011;295;51.628;7.520;2022-08-25T16:17:34;5.50;;;4.97;;
616;SDS011;295;51.628;7.520;2022-08-25T16:20:30;5.78;;;5.28;;
616;SDS011;295;51.628;7.520;2022-08-25T16:23:20;7.85;;;5.40;;
616;SDS011;295;51.628;7.520;2022-08-25T16:26:11;6.30;;;5.72;;
616;SDS011;295;51.628;7.520;2022-08-25T16:29:02;5.35;;;4.60;;
616;SDS011;295;51.628;7.520;2022-08-25T16:31:53;6.07;;;5.47;;
616;SDS011;295;51.628;7.520;2022-08-25T16:34:49;5.93;;;4.50;;
616;SDS011;295;51.628;7.520;2022-08-25T16:37:41;5.15;;;4.65;;
616;SDS011;295;51.628;7.520;2022-08-25T16:40:31;5.20;;;4.70;;
616;SDS011;295;51.628;7.520;2022-08-25T16:43:23;5.95;;;5.13;;
616;SDS011;295;51.628;7.520;2022-08-25T16:46:14;8.15;;;4.70;;
616;SDS011;295;51.628;7.520;2022-08-25T16:49:05;4.68;;;4.28;;
616;SDS011;295;51.628;7.520;2022-08-25T16:51:55;5.13;;;4.45;;
616;SDS011;295;51.628;7.520;2022-08-25T16:54:46;6.68;;;4.88;;
616;SDS011;295;51.628;7.520;2022-08-25T16:57:54;4.95;;;4.05;;
616;SDS011;295;51.628;7.520;2022-08-25T17:00:44;5.35;;;4.35;;
616;SDS011;295;51.628;7.520;2022-08-25T17:03:35;5.28;;;4.72;;
616;SDS011;295;51.628;7.520;2022-08-25T17:06:26;5.80;;;4.35;;
616;SDS011;295;51.628;7.520;2022-08-25T17:09:16;6.70;;;4.40;;
616;SDS011;295;51.628;7.520;2022-08-25T17:12:12;4.85;;;4.45;;
616;SDS011;295;51.628;7.520;2022-08-25T17:15:03;4.97;;;4.47;;
616;SDS011;295;51.628;7.520;2022-08-25T17:17:53;8.52;;;4.65;;
616;SDS011;295;51.628;7.520;2022-08-25T17:20:45;7.65;;;4.72;;
616;SDS011;295;51.628;7.520;2022-08-25T17:23:38;6.95;;;6.05;;
616;SDS011;295;51.628;7.520;2022-08-25T17:26:29;5.35;;;4.60;;
616;SDS011;295;51.628;7.520;2022-08-25T17:29:22;5.25;;;4.70;;
616;SDS011;295;51.628;7.520;2022-08-25T17:32:13;5.18;;;4.38;;
616;SDS011;295;51.628;7.520;2022-08-25T17:35:03;4.80;;;4.30;;
616;SDS011;295;51.628;7.520;2022-08-25T17:37:54;5.03;;;3.85;;
616;SDS011;295;51.628;7.520;2022-08-25T17:40:45;5.13;;;4.63;;
616;SDS011;295;51.628;7.520;2022-08-25T17:43:36;4.35;;;3.92;;
616;SDS011;295;51.628;7.520;2022-08-25T17:46:29;7.22;;;5.47;;
616;SDS011;295;51.628;7.520;2022-08-25T17:49:19;4.53;;;4.13;;
616;SDS011;295;51.628;7.520;2022-08-25T17:52:10;5.38;;;4.60;;
616;SDS011;295;51.628;7.520;2022-08-25T17:55:00;6.65;;;4.28;;
616;SDS011;295;51.628;7.520;2022-08-25T17:57:54;5.32;;;4.57;;
616;SDS011;295;51.628;7.520;2022-08-25T18:00:45;6.15;;;3.97;;
616;SDS011;295;51.628;7.520;2022-08-25T18:03:37;6.13;;;4.35;;
616;SDS011;295;51.628;7.520;2022-08-25T18:06:28;4.78;;;3.90;;
616;SDS011;295;51.628;7.520;2022-08-25T18:09:18;5.13;;;4.30;;
616;SDS011;295;51.628;7.520;2022-08-25T18:12:08;3.90;;;3.50;;
616;SDS011;295;51.628;7.520;2022-08-25T18:14:59;5.15;;;4.65;;
616;SDS011;295;51.628;7.520;2022-08-25T18:17:50;5.80;;;4.60;;
616;SDS011;295;51.628;7.520;2022-08-25T18:20:45;4.68;;;3.88;;
616;SDS011;295;51.628;7.520;2022-08-25T18:23:36;6.18;;;4.43;;
616;SDS011;295;51.628;7.520;2022-08-25T18:26:26;4.43;;;4.03;;
616;SDS011;295;51.628;7.520;2022-08-25T18:29:16;7.10;;;4.28;;
616;SDS011;295;51.628;7.520;2022-08-25T18:32:06;6.30;;;4.93;;
616;SDS011;295;51.628;7.520;2022-08-25T18:35:06;7.40;;;5.32;;
616;SDS011;295;51.628;7.520;2022-08-25T18:38:03;6.87;;;3.97;;
616;SDS011;295;51.628;7.520;2022-08-25T18:41:12;6.47;;;3.85;;
616;SDS011;295;51.628;7.520;2022-08-25T18:44:02;4.57;;;3.87;;